Time;durP1;ratioP1;P1;durP2;ratioP2;P2;SDS_P1;SDS_P2;PMS_P1;PMS_P2;Temp;Humidity;BMP_temperature;BMP_pressure;BME280_temperature;BME280_humidity;BME280_pressure;Samples;Min_cycle;Max_cycle;Signal;HPM_P1;HPM_P2
2022/03/01 00:00:02;;;;;;;31.85;15.75;;;;;;;-0.64;100.00;103077.38;5017463;28;20045;-77
2022/03/01 00:02:37;;;;;;;33.20;15.35;;;;;;;-0.75;100.00;103079.22;4987204;28;20037;-78
2022/03/01 00:05:04;;;;;;;31.08;15.43;;;;;;;-0.69;100.00;103079.16;4983637;28;20045;-78
2022/03/01 00:07:33;;;;;;;32.42;15.93;;;;;;;-0.74;100.00;103084.34;4985712;28;20018;-81
2022/03/01 00:09:58;;;;;;;29.38;14.98;;;;;;;-0.80;100.00;103077.53;4982935;28;20590;-77
2022/03/01 00:12:24;;;;;;;31.83;15.05;;;;;;;-0.71;100.00;103075.75;5006791;28;20073;-81
2022/03/01 00:14:50;;;;;;;31.00;14.48;;;;;;;-0.73;99.15;103075.75;4989707;28;20038;-76
2022/03/01 00:17:15;;;;;;;30.63;14.35;;;;;;;-0.81;99.50;103074.97;5007766;28;20480;-80
2022/03/01 00:19:44;;;;;;;26.95;14.30;;;;;;;-0.75;99.40;103082.66;5019775;28;20038;-78
2022/03/01 00:22:10;;;;;;;35.20;15.15;;;;;;;-0.69;98.97;103076.59;5005835;28;20042;-78
2022/03/01 00:24:36;;;;;;;31.73;14.52;;;;;;;-0.69;98.30;103080.00;4986107;28;20086;-78
2022/03/01 00:27:01;;;;;;;30.05;15.20;;;;;;;-0.72;98.34;103086.91;4987429;28;20110;-79
2022/03/01 00:29:27;;;;;;;30.33;14.77;;;;;;;-0.71;97.72;103068.88;5004896;28;20040;-79
2022/03/01 00:31:52;;;;;;;31.27;15.65;;;;;;;-0.66;97.18;103076.53;4999028;28;20034;-78
2022/03/01 00:34:18;;;;;;;27.90;14.70;;;;;;;-0.70;97.28;103078.28;4998525;28;20041;-81
2022/03/01 00:36:44;;;;;;;32.63;14.77;;;;;;;-0.81;98.43;103074.97;4986341;28;20081;-78
2022/03/01 00:39:09;;;;;;;32.53;14.77;;;;;;;-0.79;98.28;103076.69;5007037;28;20858;-82
2022/03/01 00:41:35;;;;;;;32.13;14.35;;;;;;;-0.86;98.31;103075.03;4978927;28;20038;-78
2022/03/01 00:44:04;;;;;;;30.83;14.63;;;;;;;-0.92;98.76;103075.09;5004348;28;20057;-79
2022/03/01 00:46:30;;;;;;;27.85;14.20;;;;;;;-0.89;98.68;103069.91;5020069;28;20034;-79
2022/03/01 00:48:57;;;;;;;29.73;14.90;;;;;;;-0.90;97.68;103075.09;5007401;28;20104;-78
2022/03/01 00:51:23;;;;;;;33.17;13.70;;;;;;;-0.91;98.19;103075.94;4984787;28;20030;-77
2022/03/01 00:53:49;;;;;;;28.35;14.18;;;;;;;-1.01;98.65;103052.84;5000017;28;20033;-78
2022/03/01 00:56:15;;;;;;;30.30;13.85;;;;;;;-1.01;98.95;103064.88;4970763;28;20047;-77
2022/03/01 00:58:41;;;;;;;33.30;15.38;;;;;;;-1.00;98.65;103058.84;4985671;28;20030;-78
2022/03/01 01:01:09;;;;;;;28.90;14.13;;;;;;;-1.03;98.70;103057.16;5001579;28;20038;-77
2022/03/01 01:03:35;;;;;;;29.00;13.63;;;;;;;-1.08;98.82;103063.22;4980126;28;20101;-78
2022/03/01 01:06:00;;;;;;;28.02;13.75;;;;;;;-1.05;99.04;103064.06;5004492;28;20041;-80
2022/03/01 01:08:27;;;;;;;27.08;13.68;;;;;;;-1.05;98.61;103063.22;4976322;28;20044;-77
2022/03/01 01:10:53;;;;;;;29.88;14.63;;;;;;;-1.10;98.66;103054.66;4989669;28;20049;-77
2022/03/01 01:13:19;;;;;;;28.02;13.85;;;;;;;-1.06;98.96;103053.75;5004547;28;20038;-75
2022/03/01 01:15:46;;;;;;;32.28;13.90;;;;;;;-0.94;97.85;103040.78;4983852;28;20046;-78
2022/03/01 01:18:12;;;;;;;28.83;14.32;;;;;;;-0.91;97.60;103045.88;4998967;28;20031;-76
2022/03/01 01:20:38;;;;;;;26.90;13.10;;;;;;;-0.91;98.02;103040.72;4987425;28;20034;-76
2022/03/01 01:23:05;;;;;;;30.77;15.18;;;;;;;-0.96;98.28;103045.09;5005707;28;20034;-76
2022/03/01 01:25:32;;;;;;;31.65;15.10;;;;;;;-0.97;98.28;103045.94;4984038;28;20826;-77
2022/03/01 01:27:59;;;;;;;27.65;13.73;;;;;;;-0.99;98.79;103047.69;4998944;28;20117;-78
2022/03/01 01:30:30;;;;;;;34.20;14.50;;;;;;;-0.98;98.45;103039.94;4997574;28;20045;-76
2022/03/01 01:32:56;;;;;;;28.52;14.10;;;;;;;-1.09;98.80;103034.03;4993737;28;20038;-78
2022/03/01 01:35:24;;;;;;;30.27;14.82;;;;;;;-1.08;98.85;103040.88;4986251;28;20387;-77
2022/03/01 01:37:51;;;;;;;29.15;14.15;;;;;;;-1.04;98.51;103042.56;4987331;28;20458;-78
2022/03/01 01:40:20;;;;;;;28.02;14.38;;;;;;;-1.03;98.51;103038.28;5001658;28;20511;-78
2022/03/01 01:42:46;;;;;;;29.38;14.18;;;;;;;-0.99;97.90;103030.50;5008153;28;20034;-76
2022/03/01 01:45:12;;;;;;;29.92;14.35;;;;;;;-1.08;97.92;103035.72;5004908;28;20027;-77
2022/03/01 01:47:38;;;;;;;29.42;14.20;;;;;;;-1.14;98.59;103020.34;5002692;28;20061;-77
2022/03/01 01:50:08;;;;;;;29.35;14.55;;;;;;;-1.16;98.86;103027.25;4988207;28;20318;-78
2022/03/01 01:52:34;;;;;;;29.92;14.52;;;;;;;-1.20;98.25;103021.25;4990679;28;20025;-76
2022/03/01 01:54:59;;;;;;;33.25;14.18;;;;;;;-1.27;98.94;103016.19;4989796;28;20395;-78
2022/03/01 01:57:25;;;;;;;26.50;13.63;;;;;;;-1.24;98.52;103008.44;4995334;28;20042;-78
2022/03/01 01:59:54;;;;;;;27.92;13.80;;;;;;;-1.30;97.92;103005.91;5015843;28;20407;-77
2022/03/01 02:02:21;;;;;;;27.35;13.70;;;;;;;-1.27;98.30;103013.59;4976730;28;20045;-76
2022/03/01 02:04:49;;;;;;;30.98;14.63;;;;;;;-1.40;98.59;103008.56;4986786;28;20046;-77
2022/03/01 02:07:15;;;;;;;28.33;13.85;;;;;;;-1.26;96.93;103013.59;4985815;28;20046;-77
2022/03/01 02:09:42;;;;;;;30.60;13.30;;;;;;;-1.22;96.46;103019.59;4976710;28;20408;-77
2022/03/01 02:12:08;;;;;;;27.67;13.27;;;;;;;-1.32;97.12;103016.22;4991737;28;20042;-79
2022/03/01 02:14:37;;;;;;;29.52;14.57;;;;;;;-1.39;97.59;103025.72;4985601;28;20022;-78
2022/03/01 02:17:08;;;;;;;28.10;13.55;;;;;;;-1.45;97.28;103009.47;4979506;28;20057;-77
2022/03/01 02:19:35;;;;;;;27.45;13.52;;;;;;;-1.30;96.70;103014.50;5003533;28;20081;-77
2022/03/01 02:22:00;;;;;;;32.17;13.18;;;;;;;-1.31;96.29;103022.25;5006924;28;20128;-77
2022/03/01 02:24:29;;;;;;;31.85;14.60;;;;;;;-1.39;96.42;103004.28;4977153;28;20121;-78
2022/03/01 02:26:56;;;;;;;29.92;14.15;;;;;;;-1.35;96.49;103015.41;4986238;28;20488;-76
2022/03/01 02:29:23;;;;;;;28.27;13.57;;;;;;;-1.34;96.20;103020.53;4993792;28;20104;-80
2022/03/01 02:31:50;;;;;;;27.02;12.90;;;;;;;-1.39;95.67;103001.72;4992929;28;20038;-76
2022/03/01 02:34:17;;;;;;;25.35;13.02;;;;;;;-1.32;95.63;103013.63;4998172;28;20037;-76
2022/03/01 02:36:42;;;;;;;30.27;13.43;;;;;;;-1.45;96.12;103004.31;4961488;28;20045;-80
2022/03/01 02:39:08;;;;;;;31.35;14.07;;;;;;;-1.41;95.80;103008.59;5007257;28;20709;-81
2022/03/01 02:41:43;;;;;;;29.23;14.23;;;;;;;-1.42;95.77;102994.84;5009222;28;20041;-80
2022/03/01 02:44:10;;;;;;;28.60;14.80;;;;;;;-1.40;96.04;103002.56;4990556;28;20755;-77
2022/03/01 02:46:36;;;;;;;27.70;14.05;;;;;;;-1.43;95.86;103006.03;4995763;28;20181;-78
2022/03/01 02:49:04;;;;;;;29.92;14.52;;;;;;;-1.46;96.04;102993.19;4995365;28;20041;-80
2022/03/01 02:51:30;;;;;;;29.77;14.63;;;;;;;-1.39;95.74;102997.41;5006047;28;20033;-80
2022/03/01 02:53:55;;;;;;;27.60;14.10;;;;;;;-1.43;95.81;103000.00;4985582;28;20116;-79
2022/03/01 02:56:21;;;;;;;29.73;15.02;;;;;;;-1.44;95.38;102993.16;4980293;28;20034;-76
2022/03/01 02:58:47;;;;;;;26.98;13.73;;;;;;;-1.32;94.82;102998.19;5011871;28;20100;-76
2022/03/01 03:01:13;;;;;;;25.98;14.27;;;;;;;-1.41;94.74;103006.03;4975147;28;20057;-76
2022/03/01 03:03:38;;;;;;;26.48;14.27;;;;;;;-1.41;95.12;102995.72;4990479;28;20468;-78
2022/03/01 03:06:04;;;;;;;30.05;14.52;;;;;;;-1.46;95.65;102987.19;4999537;28;20053;-78
2022/03/01 03:08:30;;;;;;;29.40;14.85;;;;;;;-1.43;95.37;102985.44;4984629;28;20034;-79
2022/03/01 03:10:59;;;;;;;30.70;14.45;;;;;;;-1.53;94.59;102972.66;4995010;28;20033;-77
2022/03/01 03:13:25;;;;;;;26.15;14.18;;;;;;;-1.49;95.40;102979.47;4989689;28;20114;-79
2022/03/01 03:15:51;;;;;;;25.67;14.05;;;;;;;-1.60;95.21;102971.84;5002714;28;20046;-78
2022/03/01 03:18:17;;;;;;;27.88;14.18;;;;;;;-1.60;95.83;102987.28;5001049;28;20095;-77
2022/03/01 03:20:43;;;;;;;28.70;13.55;;;;;;;-1.68;95.26;102977.06;4983670;28;20041;-77
2022/03/01 03:23:09;;;;;;;30.08;14.13;;;;;;;-1.65;95.27;102983.91;5022469;28;20038;-78
2022/03/01 03:25:36;;;;;;;26.23;13.02;;;;;;;-1.60;94.79;102975.28;4980272;28;20037;-78
2022/03/01 03:28:02;;;;;;;24.83;13.32;;;;;;;-1.66;94.68;102974.47;4984714;28;20139;-80
2022/03/01 03:30:28;;;;;;;27.13;14.18;;;;;;;-1.61;94.48;102977.88;4968668;28;20815;-79
2022/03/01 03:32:53;;;;;;;27.13;13.70;;;;;;;-1.67;95.43;102983.06;5003425;28;20054;-79
2022/03/01 03:35:19;;;;;;;27.80;14.10;;;;;;;-1.74;95.18;102973.69;4989761;28;20073;-77
2022/03/01 03:37:46;;;;;;;30.33;14.05;;;;;;;-1.77;95.73;102978.00;5003707;28;20065;-77
2022/03/01 03:40:12;;;;;;;28.48;13.75;;;;;;;-1.80;96.05;102985.72;5006057;28;20479;-77
2022/03/01 03:42:38;;;;;;;28.67;13.82;;;;;;;-1.82;96.24;102984.91;5007223;28;20034;-77
2022/03/01 03:45:05;;;;;;;26.42;13.57;;;;;;;-1.81;95.97;102978.03;5007308;28;20037;-78
2022/03/01 03:47:32;;;;;;;30.55;13.73;;;;;;;-1.79;95.79;102984.88;5000141;28;20065;-78
2022/03/01 03:49:57;;;;;;;28.52;13.55;;;;;;;-1.87;96.26;102978.91;4980655;28;20547;-79
2022/03/01 03:52:23;;;;;;;27.70;13.57;;;;;;;-1.88;96.35;102971.25;4974591;28;20125;-80
2022/03/01 03:54:50;;;;;;;28.33;13.60;;;;;;;-1.89;96.79;102975.50;5003016;28;20038;-78
2022/03/01 03:57:16;;;;;;;23.80;12.85;;;;;;;-1.92;96.39;102977.25;5008896;28;20124;-78
2022/03/01 03:59:43;;;;;;;26.58;12.75;;;;;;;-1.96;96.54;102964.44;4994333;28;20038;-79
2022/03/01 04:02:09;;;;;;;29.15;13.65;;;;;;;-1.96;96.15;102977.28;4989558;28;20057;-79
2022/03/01 04:04:35;;;;;;;26.42;12.93;;;;;;;-1.96;96.58;102974.72;5022948;28;20042;-80
2022/03/01 04:07:01;;;;;;;24.60;12.40;;;;;;;-2.03;97.06;102980.75;4987648;28;20065;-80
2022/03/01 04:09:27;;;;;;;29.73;14.23;;;;;;;-2.02;97.31;102987.59;5002692;28;20080;-77
2022/03/01 04:11:52;;;;;;;25.83;13.85;;;;;;;-2.03;97.23;102977.34;4972195;28;20391;-78
2022/03/01 04:14:18;;;;;;;27.38;13.13;;;;;;;-2.03;97.07;102977.34;5002720;28;20878;-77
2022/03/01 04:16:45;;;;;;;29.70;14.52;;;;;;;-2.00;96.83;102978.19;4995679;28;20133;-77
2022/03/01 04:19:11;;;;;;;27.75;13.65;;;;;;;-1.97;96.62;102961.88;5005050;28;20495;-77
2022/03/01 04:21:38;;;;;;;29.08;13.95;;;;;;;-2.11;97.43;102955.94;4985045;28;20037;-77
2022/03/01 04:24:04;;;;;;;30.15;13.93;;;;;;;-2.04;96.96;102958.47;4973083;28;20033;-77
2022/03/01 04:26:30;;;;;;;31.25;13.95;;;;;;;-2.14;96.83;102954.25;4968054;28;20488;-76
2022/03/01 04:28:55;;;;;;;23.50;12.52;;;;;;;-2.21;97.33;102944.88;5002821;28;20044;-77
2022/03/01 04:31:24;;;;;;;30.13;14.43;;;;;;;-2.24;97.74;102950.03;5004433;28;20056;-77
2022/03/01 04:33:49;;;;;;;26.50;13.48;;;;;;;-2.28;98.21;102953.50;5001918;28;20030;-78
2022/03/01 04:36:16;;;;;;;29.02;13.45;;;;;;;-2.22;98.05;102953.47;4982536;28;20226;-78
2022/03/01 04:38:43;;;;;;;27.35;14.35;;;;;;;-2.14;97.05;102950.84;4998295;28;20094;-78
2022/03/01 04:41:09;;;;;;;27.15;13.32;;;;;;;-2.18;96.67;102940.56;4990916;28;20558;-78
2022/03/01 04:43:35;;;;;;;30.65;13.38;;;;;;;-2.21;97.71;102945.72;5002532;28;20487;-77
2022/03/01 04:46:02;;;;;;;27.73;14.13;;;;;;;-2.30;97.53;102937.22;4982578;28;20052;-77
2022/03/01 04:48:28;;;;;;;28.48;14.70;;;;;;;-2.25;97.61;102936.34;4992370;28;20026;-79
2022/03/01 04:50:53;;;;;;;27.08;13.52;;;;;;;-2.25;97.53;102936.34;4977338;28;20566;-80
2022/03/01 04:53:23;;;;;;;26.70;12.85;;;;;;;-2.21;96.29;102939.75;5004084;28;20137;-76
2022/03/01 04:55:49;;;;;;;28.30;14.13;;;;;;;-2.28;97.65;102932.91;4999153;28;20034;-79
2022/03/01 04:58:15;;;;;;;28.38;14.02;;;;;;;-2.33;97.76;102944.97;4989236;28;20152;-77
2022/03/01 05:00:41;;;;;;;28.35;14.18;;;;;;;-2.38;97.35;102950.97;5005731;28;20145;-78
2022/03/01 05:03:07;;;;;;;24.65;13.60;;;;;;;-2.36;97.84;102944.09;4988071;28;20743;-80
2022/03/01 05:05:32;;;;;;;26.75;13.90;;;;;;;-2.46;98.03;102937.31;4980701;28;20026;-78
2022/03/01 05:07:58;;;;;;;25.52;13.75;;;;;;;-2.36;97.21;102941.53;4987656;28;20084;-78
2022/03/01 05:10:24;;;;;;;29.60;13.93;;;;;;;-2.48;97.59;102922.78;4989252;28;20066;-76
2022/03/01 05:12:56;;;;;;;32.10;14.23;;;;;;;-2.38;97.98;102944.97;4988313;28;20036;-76
2022/03/01 05:15:26;;;;;;;28.08;14.05;;;;;;;-2.48;97.62;102931.34;4996055;28;20049;-78
2022/03/01 05:17:53;;;;;;;26.35;13.60;;;;;;;-2.46;97.84;102941.63;5019877;28;20052;-78
2022/03/01 05:20:19;;;;;;;28.75;13.50;;;;;;;-2.50;97.98;102948.47;5002826;28;20549;-79
2022/03/01 05:22:46;;;;;;;25.17;13.85;;;;;;;-2.51;98.04;102941.63;4995833;28;20053;-79
2022/03/01 05:25:14;;;;;;;30.92;14.40;;;;;;;-2.46;97.55;102952.75;4986514;28;20038;-79
2022/03/01 05:27:42;;;;;;;29.00;13.77;;;;;;;-2.52;98.21;102951.91;5014386;28;20508;-80
2022/03/01 05:30:11;;;;;;;29.13;13.55;;;;;;;-2.60;98.54;102946.81;4973015;28;20129;-76
2022/03/01 05:32:39;;;;;;;29.55;14.43;;;;;;;-2.66;99.29;102942.56;4993283;28;20038;-77
2022/03/01 05:35:09;;;;;;;29.92;13.88;;;;;;;-2.65;99.02;102943.44;5006709;28;20042;-79
2022/03/01 05:37:36;;;;;;;32.38;14.25;;;;;;;-2.71;99.94;102936.59;5008563;28;20033;-81
2022/03/01 05:40:03;;;;;;;27.05;14.55;;;;;;;-2.74;99.23;102924.59;4998362;28;20400;-79
2022/03/01 05:42:29;;;;;;;28.05;14.90;;;;;;;-2.68;98.77;102930.59;4980226;28;20046;-77
2022/03/01 05:44:55;;;;;;;27.00;14.30;;;;;;;-2.73;99.77;102940.91;4972238;28;20681;-77
2022/03/01 05:47:22;;;;;;;28.58;14.02;;;;;;;-2.72;100.00;102944.31;4987997;28;20084;-77
2022/03/01 05:49:47;;;;;;;27.67;14.27;;;;;;;-2.69;99.37;102929.75;4995872;28;20053;-78
2022/03/01 05:52:13;;;;;;;27.10;14.15;;;;;;;-2.70;100.00;102937.44;4988592;28;20034;-77
2022/03/01 05:54:39;;;;;;;28.95;14.02;;;;;;;-2.75;100.00;102950.28;5010310;28;20112;-77
2022/03/01 05:57:04;;;;;;;28.90;15.20;;;;;;;-2.82;100.00;102928.94;4978714;28;20500;-79
2022/03/01 05:59:30;;;;;;;29.30;14.00;;;;;;;-2.75;100.00;102952.88;5000240;28;20125;-79
2022/03/01 06:01:56;;;;;;;29.35;14.77;;;;;;;-2.78;100.00;102943.47;5022337;28;20116;-80
2022/03/01 06:04:21;;;;;;;28.73;14.65;;;;;;;-2.82;100.00;102944.34;4976773;28;20795;-80
2022/03/01 06:06:47;;;;;;;31.73;15.77;;;;;;;-2.81;100.00;102946.03;4988967;28;20057;-78
2022/03/01 06:09:13;;;;;;;27.92;14.50;;;;;;;-2.73;100.00;102951.19;4990558;28;20041;-78
2022/03/01 06:11:38;;;;;;;30.38;14.10;;;;;;;-2.76;100.00;102946.88;5013221;28;20100;-78
2022/03/01 06:14:04;;;;;;;29.60;15.25;;;;;;;-2.73;100.00;102935.75;4984177;28;20023;-76
2022/03/01 06:16:30;;;;;;;34.15;15.27;;;;;;;-2.81;100.00;102920.34;4995209;28;20041;-77
2022/03/01 06:18:58;;;;;;;30.30;14.52;;;;;;;-2.70;100.00;102943.44;4993713;28;20507;-77
2022/03/01 06:21:24;;;;;;;29.45;14.27;;;;;;;-2.78;100.00;102948.59;5004698;28;20103;-78
2022/03/01 06:23:50;;;;;;;30.25;14.65;;;;;;;-2.85;100.00;102949.50;4998596;28;20491;-79
2022/03/01 06:26:16;;;;;;;27.15;14.55;;;;;;;-2.84;100.00;102940.94;5004155;28;20088;-77
2022/03/01 06:28:42;;;;;;;31.27;14.10;;;;;;;-2.67;100.00;102947.72;4994137;28;20030;-80
2022/03/01 06:31:09;;;;;;;26.50;14.63;;;;;;;-2.72;100.00;102949.44;4988155;28;20087;-79
2022/03/01 06:33:35;;;;;;;30.13;15.82;;;;;;;-2.63;100.00;102957.13;4983302;28;20488;-81
2022/03/01 06:36:01;;;;;;;28.55;14.70;;;;;;;-2.67;100.00;102945.16;4991825;28;20032;-77
2022/03/01 06:38:26;;;;;;;29.45;15.32;;;;;;;-2.64;100.00;102950.25;4978429;28;20052;-78
2022/03/01 06:40:56;;;;;;;28.30;15.00;;;;;;;-2.64;100.00;102955.41;4982692;28;20074;-77
2022/03/01 06:43:22;;;;;;;30.20;14.55;;;;;;;-2.62;100.00;102939.13;5000475;28;20140;-78
2022/03/01 06:45:48;;;;;;;31.08;15.70;;;;;;;-2.53;100.00;102939.94;4982419;28;20042;-78
2022/03/01 06:48:14;;;;;;;28.25;15.48;;;;;;;-2.47;100.00;102937.31;4999032;28;20042;-77
2022/03/01 06:50:40;;;;;;;30.17;14.93;;;;;;;-2.50;100.00;102938.22;4984244;28;20042;-77
2022/03/01 06:53:06;;;;;;;30.67;15.38;;;;;;;-2.38;100.00;102934.69;4972034;28;20034;-76
2022/03/01 06:55:32;;;;;;;33.00;15.77;;;;;;;-2.38;100.00;102938.13;4991905;28;20042;-77
2022/03/01 06:57:58;;;;;;;32.08;15.82;;;;;;;-2.30;100.00;102939.78;5009224;28;20041;-79
2022/03/01 07:00:24;;;;;;;27.98;15.05;;;;;;;-2.17;99.59;102938.84;4974663;28;20491;-77
2022/03/01 07:02:50;;;;;;;31.27;15.98;;;;;;;-2.17;99.67;102941.41;4985444;28;20046;-81
2022/03/01 07:05:17;;;;;;;32.03;15.38;;;;;;;-2.05;99.23;102955.94;4990898;28;20067;-81
2022/03/01 07:07:43;;;;;;;31.92;16.17;;;;;;;-1.89;98.56;102954.09;5003943;28;20034;-80
2022/03/01 07:10:11;;;;;;;32.63;15.90;;;;;;;-1.82;98.13;102959.16;5000171;28;20057;-79
2022/03/01 07:12:39;;;;;;;31.23;15.73;;;;;;;-1.83;96.88;102928.31;5004155;28;20120;-76
2022/03/01 07:15:06;;;;;;;30.95;15.73;;;;;;;-1.69;96.03;102941.91;4977854;28;20045;-77
2022/03/01 07:17:31;;;;;;;28.85;15.20;;;;;;;-1.63;96.26;102934.13;5005424;28;20121;-78
2022/03/01 07:19:57;;;;;;;31.60;15.85;;;;;;;-1.56;95.54;102942.66;4986840;28;20145;-77
2022/03/01 07:22:23;;;;;;;40.15;21.48;;;;;;;-1.49;96.17;102946.00;4978503;28;20129;-78
2022/03/01 07:24:48;;;;;;;49.28;23.40;;;;;;;-1.40;95.77;102954.50;4989285;28;20031;-81
2022/03/01 07:27:14;;;;;;;32.95;17.50;;;;;;;-1.34;94.50;102937.28;5008248;28;20069;-78
2022/03/01 07:29:40;;;;;;;31.00;16.35;;;;;;;-1.33;94.24;102936.44;4993602;28;20038;-78
2022/03/01 07:32:06;;;;;;;30.90;16.83;;;;;;;-1.18;93.52;102949.97;4988339;28;20104;-78
2022/03/01 07:34:32;;;;;;;33.42;19.38;;;;;;;-1.14;94.35;102949.97;4977078;28;20066;-77
2022/03/01 07:36:59;;;;;;;29.55;15.30;;;;;;;-1.10;93.55;102955.06;5006421;28;20038;-76
2022/03/01 07:39:24;;;;;;;33.83;17.40;;;;;;;-0.98;93.08;102944.63;4972299;28;20030;-78
2022/03/01 07:41:50;;;;;;;29.48;16.08;;;;;;;-0.92;92.23;102940.25;4989878;28;20479;-78
2022/03/01 07:44:17;;;;;;;32.55;16.48;;;;;;;-0.91;92.46;102945.38;5015147;28;20069;-76
2022/03/01 07:46:43;;;;;;;32.45;15.90;;;;;;;-0.84;92.65;102952.19;5015217;28;20747;-76
2022/03/01 07:49:09;;;;;;;32.33;16.15;;;;;;;-0.73;92.52;102961.50;5002965;28;20030;-77
2022/03/01 07:51:35;;;;;;;33.63;16.52;;;;;;;-0.68;91.56;102960.59;5005553;28;20041;-76
2022/03/01 07:54:01;;;;;;;30.65;16.15;;;;;;;-0.84;90.93;102948.75;4990257;28;20377;-77
2022/03/01 07:56:30;;;;;;;33.03;16.83;;;;;;;-0.91;92.23;102958.25;4989844;28;20034;-77
2022/03/01 07:58:56;;;;;;;33.33;17.25;;;;;;;-0.92;93.10;102955.69;5004503;28;20119;-76
2022/03/01 08:01:22;;;;;;;30.85;16.40;;;;;;;-0.86;92.38;102941.03;4975198;28;20030;-76
2022/03/01 08:03:49;;;;;;;29.73;15.65;;;;;;;-0.97;93.06;102932.59;4983759;28;20035;-76
2022/03/01 08:06:15;;;;;;;31.05;17.63;;;;;;;-0.86;93.63;102932.47;5008495;28;20038;-75
2022/03/01 08:08:40;;;;;;;33.03;16.75;;;;;;;-0.84;93.02;102928.13;4987606;28;20172;-76
2022/03/01 08:11:06;;;;;;;35.47;20.33;;;;;;;-0.80;92.59;102930.66;4987749;28;20121;-79
2022/03/01 08:13:33;;;;;;;28.85;15.73;;;;;;;-0.72;92.77;102934.84;5024359;28;20041;-76
2022/03/01 08:15:59;;;;;;;31.33;16.13;;;;;;;-0.64;92.44;102933.00;4978594;28;20077;-78
2022/03/01 08:18:25;;;;;;;31.25;16.20;;;;;;;-0.45;91.85;102947.38;4988513;28;20108;-76
2022/03/01 08:20:50;;;;;;;33.35;15.95;;;;;;;-0.32;90.62;102932.59;4990572;28;20521;-76
2022/03/01 08:23:16;;;;;;;31.98;17.13;;;;;;;-0.07;91.61;102927.06;5015250;28;20043;-76
2022/03/01 08:25:42;;;;;;;29.88;16.33;;;;;;;0.01;89.76;102932.94;4983829;28;20033;-76
2022/03/01 08:28:07;;;;;;;29.10;15.98;;;;;;;0.16;89.88;102945.59;4966046;28;20049;-76
2022/03/01 08:30:35;;;;;;;28.30;15.73;;;;;;;0.30;87.69;102929.91;5000743;28;20060;-76
2022/03/01 08:33:02;;;;;;;29.40;15.73;;;;;;;0.29;87.83;102935.91;5004823;28;20045;-80
2022/03/01 08:35:30;;;;;;;27.92;15.55;;;;;;;0.53;87.18;102947.56;4984832;28;20041;-76
2022/03/01 08:38:00;;;;;;;27.35;14.88;;;;;;;0.55;86.89;102930.28;4984687;28;20046;-77
2022/03/01 08:40:25;;;;;;;27.35;15.32;;;;;;;0.44;86.42;102924.47;5006566;28;20701;-78
2022/03/01 08:42:51;;;;;;;29.23;15.20;;;;;;;0.48;87.79;102923.53;4991514;28;20042;-79
2022/03/01 08:45:17;;;;;;;29.73;15.90;;;;;;;0.59;86.70;102933.69;5002140;28;20057;-78
2022/03/01 08:47:42;;;;;;;29.92;15.48;;;;;;;0.58;86.14;102922.50;4987295;28;20092;-77
2022/03/01 08:50:10;;;;;;;29.45;16.02;;;;;;;0.54;86.89;102932.91;4972823;28;20183;-77
2022/03/01 08:52:35;;;;;;;27.95;15.48;;;;;;;0.48;86.09;102918.38;4981515;28;20057;-76
2022/03/01 08:55:01;;;;;;;29.05;15.48;;;;;;;0.34;86.65;102915.16;4960407;28;20487;-77
2022/03/01 08:57:27;;;;;;;31.92;17.23;;;;;;;0.30;88.11;102910.94;4970903;28;20045;-77
2022/03/01 08:59:52;;;;;;;29.65;15.82;;;;;;;0.36;89.06;102916.03;4996857;28;20042;-76
2022/03/01 09:02:19;;;;;;;30.77;16.67;;;;;;;0.45;87.25;102896.91;5000199;28;20087;-77
2022/03/01 09:04:45;;;;;;;33.17;17.35;;;;;;;0.51;87.79;102905.41;5016412;28;20046;-78
2022/03/01 09:07:11;;;;;;;33.67;16.63;;;;;;;0.46;86.61;102907.22;5017291;28;20054;-76
2022/03/01 09:09:36;;;;;;;32.85;16.38;;;;;;;0.48;87.12;102904.63;4984086;28;20640;-77
2022/03/01 09:12:03;;;;;;;33.95;16.88;;;;;;;0.44;86.77;102896.06;4991096;28;20484;-78
2022/03/01 09:14:28;;;;;;;30.05;16.05;;;;;;;0.45;87.50;102895.16;4991000;28;20026;-77
2022/03/01 09:16:54;;;;;;;29.98;15.73;;;;;;;0.52;89.02;102904.50;4988094;28;20041;-77
2022/03/01 09:19:20;;;;;;;30.20;15.68;;;;;;;0.65;87.26;102906.88;5002067;28;20080;-77
2022/03/01 09:21:46;;;;;;;32.78;15.60;;;;;;;0.72;88.03;102895.56;4983313;28;20065;-78
2022/03/01 09:24:12;;;;;;;29.08;15.52;;;;;;;0.92;87.46;102902.88;4987830;28;20090;-80
2022/03/01 09:26:37;;;;;;;31.25;16.98;;;;;;;1.21;85.56;102915.22;5009398;28;20029;-81
2022/03/01 09:29:03;;;;;;;27.48;15.60;;;;;;;1.41;84.83;102917.34;4983408;28;20049;-80
2022/03/01 09:31:29;;;;;;;28.88;15.13;;;;;;;1.68;83.47;102910.72;4987158;28;20072;-80
2022/03/01 09:33:54;;;;;;;29.77;14.02;;;;;;;1.80;83.28;102907.00;4986951;28;20045;-79
2022/03/01 09:36:20;;;;;;;26.23;13.52;;;;;;;1.82;81.56;102912.13;4978442;28;20492;-76
2022/03/01 09:38:46;;;;;;;30.38;14.68;;;;;;;1.65;82.15;102915.13;4997192;28;20061;-76
2022/03/01 09:41:13;;;;;;;29.23;14.13;;;;;;;1.64;82.51;102905.66;5007078;28;20030;-77
2022/03/01 09:43:40;;;;;;;29.67;14.63;;;;;;;1.80;82.51;102917.34;4985573;28;20034;-76
2022/03/01 09:46:07;;;;;;;27.73;13.25;;;;;;;1.94;81.60;102915.28;4990669;28;20223;-77
2022/03/01 09:48:33;;;;;;;28.45;13.40;;;;;;;2.14;81.28;102912.19;5007340;28;20069;-77
2022/03/01 09:51:00;;;;;;;27.58;13.88;;;;;;;2.19;79.79;102906.91;4988874;28;20060;-77
2022/03/01 09:53:27;;;;;;;29.48;13.30;;;;;;;2.35;79.42;102917.72;4990637;28;20116;-76
2022/03/01 09:55:55;;;;;;;31.48;13.85;;;;;;;2.53;78.69;102916.38;4995198;28;20057;-79
2022/03/01 09:58:22;;;;;;;27.80;14.05;;;;;;;2.74;78.65;102925.31;4973620;28;20089;-80
2022/03/01 10:00:47;;;;;;;28.17;13.40;;;;;;;2.89;78.05;102918.84;4986671;28;20034;-79
2022/03/01 10:03:19;;;;;;;26.83;13.05;;;;;;;2.92;76.45;102926.56;4992521;28;20125;-76
2022/03/01 10:05:45;;;;;;;28.13;12.98;;;;;;;3.01;76.99;102915.91;4986379;28;20045;-78
2022/03/01 10:08:13;;;;;;;25.88;13.45;;;;;;;3.19;76.92;102919.72;4986190;28;20068;-80
2022/03/01 10:10:47;;;;;;;34.03;13.32;;;;;;;3.12;75.06;102923.38;5005228;28;20030;-80
2022/03/01 10:13:20;;;;;;;26.10;13.10;;;;;;;3.06;75.68;102919.22;4985444;28;20045;-79
2022/03/01 10:15:47;;;;;;;27.65;14.23;;;;;;;3.19;77.07;102911.09;4990425;28;20133;-76
2022/03/01 10:18:15;;;;;;;25.17;13.30;;;;;;;3.28;74.55;102921.19;5005318;28;20045;-76
2022/03/01 10:20:44;;;;;;;25.88;12.60;;;;;;;3.43;73.24;102925.06;4988688;28;20053;-78
2022/03/01 10:23:10;;;;;;;24.60;13.02;;;;;;;3.30;73.60;102915.06;5002300;28;20648;-78
2022/03/01 10:25:39;;;;;;;26.63;12.07;;;;;;;3.34;71.65;102927.94;4983825;28;20050;-76
2022/03/01 10:28:05;;;;;;;25.25;12.88;;;;;;;3.40;73.03;102925.16;4992852;28;20131;-76
2022/03/01 10:30:36;;;;;;;24.15;13.32;;;;;;;3.46;71.97;102919.78;4985429;28;20567;-78
2022/03/01 10:33:13;;;;;;;28.65;12.30;;;;;;;3.81;70.80;102925.63;5004706;28;20050;-79
2022/03/01 10:35:42;;;;;;;25.75;12.82;;;;;;;4.11;69.34;102923.78;4988491;28;20034;-76
2022/03/01 10:38:10;;;;;;;27.25;12.77;;;;;;;4.13;68.46;102929.75;4991934;28;20044;-80
2022/03/01 10:40:39;;;;;;;24.48;12.68;;;;;;;4.38;68.78;102934.97;4989628;28;20069;-78
2022/03/01 10:43:10;;;;;;;25.42;13.07;;;;;;;4.66;67.03;102931.41;4989028;28;20034;-77
2022/03/01 10:45:41;;;;;;;26.40;13.45;;;;;;;4.46;67.75;102932.97;4976138;28;20045;-79
2022/03/01 10:48:09;;;;;;;27.88;13.15;;;;;;;4.38;67.82;102941.94;4992787;28;20557;-78
2022/03/01 10:50:36;;;;;;;25.08;13.57;;;;;;;4.39;69.30;102935.81;4990634;28;20034;-76
2022/03/01 10:53:02;;;;;;;23.67;12.48;;;;;;;4.42;68.27;102931.34;5001016;28;20793;-80
2022/03/01 10:55:30;;;;;;;22.67;12.68;;;;;;;4.36;67.82;102925.53;4993877;28;20041;-77
2022/03/01 10:58:04;;;;;;;26.30;12.77;;;;;;;4.55;69.49;102926.59;5011033;28;20133;-76
2022/03/01 11:00:31;;;;;;;25.77;13.40;;;;;;;4.77;68.27;102918.03;5003759;28;20026;-76
2022/03/01 11:02:57;;;;;;;25.00;12.27;;;;;;;4.78;65.75;102930.97;5017991;28;20037;-78
2022/03/01 11:05:23;;;;;;;27.85;13.40;;;;;;;4.84;66.93;102924.69;4970568;28;20038;-77